Poyarkovo, Russia
Current Conditions -  °F | °C
As of 8:00 AM on Tuesday 21 Oct 2014 (Local Time) from UHBB Reporting Station
Clear Clear  
Wind Chill:   Ceiling: Unl
Heat Index: 16°   Visibility: 6mi
Dew Point: -2°   Wind: 11mph
Humidity: 45%   Direction: 260°W
Pressure: 30.12"   Gusts: NA
Location:  49.6°N, 128.68°E
Report Text: UHBB 202300Z 26005MPS CAVOK M09/M19 Q1020 TEMPO 27007MPS RMKQFE748/0997 36090060
Loading
Personal Weather Stations






























Interactive Weather Map
Tropical Storm Tracking
New forecast layout! Learn more

10-Day Weather Forecast

Advertisements
Track Severe Weather on mobile